LIMJLFMN

Guest
Details From LIMJ - Genova Cristoforo Colombo Airport
To LFMN - Nice/Cote d'Azur
Flight Number -
Tags decoded
Created
Modified
Stats Distance 84 nm / 155 km
Max Altitude 0 ft / 0 m
Waypoints 2
Social Downloads 0
Likes 0
Share VATSIM

Download

Looking for another format? Having issues loading an existing format? Contact us
Advertisement - Login to hide

Notes

Requested: LIMJ LFMN

Route

LIMJ LFMN

ID Type Via Altitude (ft/m) Position (lat/lon) Dist (leg/tot) Name
O LIMJ APT - 0 / 0 44.41200 / 8.84180 - / 0 nm Genova Cristoforo Colombo Airport
O LFMN APT - 0 / 0 43.65840 / 7.21578 83 / 83 nm Nice/Cote d'Azur

Altitude Profile

Advertisement - Login to hide

LIMJ

Details ICAO LIMJ (GOA)
Name Genova Cristoforo Colombo Airport
Region Italy
Timezone Unknown
Stats Elevation 13 ft / 4 m (AMSL)
Location 44.412000° 8.841800°
Runways 1
Magnetic Variation 2.493° E

METAR

LIMJ 182350Z 03005KT 360V090 CAVOK 08/M04 Q1012

Decode

TAF

TAF LIMJ 182300Z 1900/1924 04010KT CAVOK

Decode

Departure Runways

ID Width Length Bearing (true/mag) Surface Threshold Overrun Markings Lighting
10 148 ft / 45 m 9,577 ft / 2,919 m 105.33° / 102.84° CONCRETE 0 ft / 0 m 0 ft / 0 m PREC-APP CENTERLINE EDGE THRESHOLD SALS REIL-OMNI
28 148 ft / 45 m 9,577 ft / 2,919 m 285.36° / 282.87° CONCRETE 522 ft / 159 m 0 ft / 0 m PREC-APP CENTERLINE EDGE THRESHOLD SALS REIL-OMNI

LFMN

Details ICAO LFMN (NCE)
Name Nice/Cote d'Azur
Region France
Timezone Unknown
Stats Elevation 12 ft / 4 m (AMSL)
Location 43.658400° 7.215780°
Runways 2
Magnetic Variation 2.121° E

METAR

LFMN 190000Z 33009KT 9999 SCT066 07/M00 Q1011 NOSIG

Decode

TAF

TAF LFMN 182000Z 1821/2003 34010KT CAVOK BECMG 1907/1909 06015KT FEW040TCU TEMPO 1910/1921 08020G35KT BECMG 1918/1921 CAVOK

Decode

Destination Runways

ID Width Length Bearing (true/mag) Surface Threshold Overrun Markings Lighting
04L 148 ft / 45 m 9,032 ft / 2,753 m 44.83° / 42.71° ASPHALT 0 ft / 0 m 161 ft / 49 m PREC-APP CENTERLINE EDGE THRESHOLD REIL-OMNI
04R 148 ft / 45 m 9,705 ft / 2,958 m 44.85° / 42.73° ASPHALT 0 ft / 0 m 417 ft / 127 m PREC-APP CENTERLINE EDGE THRESHOLD REIL-OMNI
22L 148 ft / 45 m 9,705 ft / 2,958 m 224.87° / 222.75° ASPHALT 0 ft / 0 m 525 ft / 160 m PREC-APP CENTERLINE EDGE THRESHOLD REIL-OMNI
22R 148 ft / 45 m 9,032 ft / 2,753 m 224.84° / 222.72° ASPHALT 614 ft / 187 m 0 ft / 0 m PREC-APP CENTERLINE EDGE THRESHOLD REIL-OMNI

Approach Navaids

Runway Type Ident Frequency Range Bearing (true/mag) Slope Elevation
04L GS NI 109.95 MHz 27 nm / 50 km 44.84° / 42.72 ° 3.00° 12 ft / 4 m (AMSL)
04L DME NI 109.95 MHz 27 nm / 50 km - - 12 ft / 4 m (AMSL)
04L LOC-ILS NI 109.95 MHz 27 nm / 50 km 44.84° / 42.72 ° - 12 ft / 4 m (AMSL)
04R DME NA 110.70 MHz 27 nm / 50 km - - 12 ft / 4 m (AMSL)
04R LOC-ILS NA 110.70 MHz 27 nm / 50 km 44.86° / 42.74 ° - 12 ft / 4 m (AMSL)
04R GS NA 110.70 MHz 27 nm / 50 km 44.86° / 42.74 ° 3.00° 12 ft / 4 m (AMSL)

Popular Alternatives